sensor_id;sensor_type;location;lat;lon;timestamp;temperature;humidity
51589;DHT22;37671;53.258;6.460;2022-10-16T00:00:39;11.80;99.90
51589;DHT22;37671;53.258;6.460;2022-10-16T00:03:05;11.80;99.90
51589;DHT22;37671;53.258;6.460;2022-10-16T00:05:43;11.80;99.90
51589;DHT22;37671;53.258;6.460;2022-10-16T00:08:10;11.80;99.90
51589;DHT22;37671;53.258;6.460;2022-10-16T00:10:36;11.70;99.90
51589;DHT22;37671;53.258;6.460;2022-10-16T00:13:03;12.40;99.90
51589;DHT22;37671;53.258;6.460;2022-10-16T00:15:28;12.50;99.90
51589;DHT22;37671;53.258;6.460;2022-10-16T00:17:54;11.70;99.90
51589;DHT22;37671;53.258;6.460;2022-10-16T00:20:19;11.70;99.90
51589;DHT22;37671;53.258;6.460;2022-10-16T00:22:45;11.70;99.90
51589;DHT22;37671;53.258;6.460;2022-10-16T00:25:11;11.70;99.90
51589;DHT22;37671;53.258;6.460;2022-10-16T00:27:37;11.70;99.90
51589;DHT22;37671;53.258;6.460;2022-10-16T00:30:03;11.70;99.90
51589;DHT22;37671;53.258;6.460;2022-10-16T00:32:28;11.70;99.90
51589;DHT22;37671;53.258;6.460;2022-10-16T00:34:55;11.70;99.90
51589;DHT22;37671;53.258;6.460;2022-10-16T00:37:21;11.70;99.90
51589;DHT22;37671;53.258;6.460;2022-10-16T00:39:47;11.70;99.90
51589;DHT22;37671;53.258;6.460;2022-10-16T00:42:19;11.70;99.90
51589;DHT22;37671;53.258;6.460;2022-10-16T00:44:56;11.70;99.90
51589;DHT22;37671;53.258;6.460;2022-10-16T00:47:29;11.80;99.90
51589;DHT22;37671;53.258;6.460;2022-10-16T00:50:22;11.70;99.90
51589;DHT22;37671;53.258;6.460;2022-10-16T00:52:50;11.80;99.90
51589;DHT22;37671;53.258;6.460;2022-10-16T00:55:17;11.70;99.90
51589;DHT22;37671;53.258;6.460;2022-10-16T00:57:44;11.80;99.90
51589;DHT22;37671;53.258;6.460;2022-10-16T01:00:13;11.70;99.90
51589;DHT22;37671;53.258;6.460;2022-10-16T01:02:38;11.70;99.90
51589;DHT22;37671;53.258;6.460;2022-10-16T01:05:05;11.80;99.90
51589;DHT22;37671;53.258;6.460;2022-10-16T01:07:36;11.80;99.90
51589;DHT22;37671;53.258;6.460;2022-10-16T01:10:30;11.80;99.90
51589;DHT22;37671;53.258;6.460;2022-10-16T01:13:10;11.70;99.90
51589;DHT22;37671;53.258;6.460;2022-10-16T01:15:45;11.80;99.90
51589;DHT22;37671;53.258;6.460;2022-10-16T01:20:44;11.80;99.90
51589;DHT22;37671;53.258;6.460;2022-10-16T01:29:38;11.90;99.90
51589;DHT22;37671;53.258;6.460;2022-10-16T06:01:11;12.00;99.90
51589;DHT22;37671;53.258;6.460;2022-10-16T06:03:37;12.00;99.90
51589;DHT22;37671;53.258;6.460;2022-10-16T06:06:15;12.00;99.90
51589;DHT22;37671;53.258;6.460;2022-10-16T06:08:42;11.90;99.90
51589;DHT22;37671;53.258;6.460;2022-10-16T06:11:13;11.80;99.90
51589;DHT22;37671;53.258;6.460;2022-10-16T06:13:39;12.10;99.90
51589;DHT22;37671;53.258;6.460;2022-10-16T06:16:09;11.80;99.90
51589;DHT22;37671;53.258;6.460;2022-10-16T06:18:34;11.80;99.90
51589;DHT22;37671;53.258;6.460;2022-10-16T06:21:07;11.90;99.90
51589;DHT22;37671;53.258;6.460;2022-10-16T06:23:34;11.90;99.90
51589;DHT22;37671;53.258;6.460;2022-10-16T06:26:11;11.90;99.90
51589;DHT22;37671;53.258;6.460;2022-10-16T06:28:37;12.00;99.90
51589;DHT22;37671;53.258;6.460;2022-10-16T06:31:04;12.10;99.90
51589;DHT22;37671;53.258;6.460;2022-10-16T06:33:30;12.20;99.90
51589;DHT22;37671;53.258;6.460;2022-10-16T06:36:11;12.10;99.90
51589;DHT22;37671;53.258;6.460;2022-10-16T06:38:37;12.20;99.90
51589;DHT22;37671;53.258;6.460;2022-10-16T06:41:03;12.30;99.90
51589;DHT22;37671;53.258;6.460;2022-10-16T06:43:29;12.20;99.90
51589;DHT22;37671;53.258;6.460;2022-10-16T06:46:01;12.30;99.90
51589;DHT22;37671;53.258;6.460;2022-10-16T06:48:28;12.20;99.90
51589;DHT22;37671;53.258;6.460;2022-10-16T06:51:13;12.20;99.90
51589;DHT22;37671;53.258;6.460;2022-10-16T06:53:44;12.20;99.90
51589;DHT22;37671;53.258;6.460;2022-10-16T06:56:13;12.90;99.90
51589;DHT22;37671;53.258;6.460;2022-10-16T06:58:40;12.90;99.90
51589;DHT22;37671;53.258;6.460;2022-10-16T07:01:06;12.20;99.90
51589;DHT22;37671;53.258;6.460;2022-10-16T07:03:32;12.30;99.90
51589;DHT22;37671;53.258;6.460;2022-10-16T07:06:03;12.30;99.90
51589;DHT22;37671;53.258;6.460;2022-10-16T07:08:33;12.30;99.90
51589;DHT22;37671;53.258;6.460;2022-10-16T07:11:04;12.40;99.90
51589;DHT22;37671;53.258;6.460;2022-10-16T07:13:32;12.40;99.90
51589;DHT22;37671;53.258;6.460;2022-10-16T07:15:58;12.40;99.90
51589;DHT22;37671;53.258;6.460;2022-10-16T07:18:23;12.40;99.90
51589;DHT22;37671;53.258;6.460;2022-10-16T07:20:52;12.40;99.90
51589;DHT22;37671;53.258;6.460;2022-10-16T07:23:17;12.50;99.90
51589;DHT22;37671;53.258;6.460;2022-10-16T07:25:43;12.50;99.90
51589;DHT22;37671;53.258;6.460;2022-10-16T07:28:09;12.50;99.90
51589;DHT22;37671;53.258;6.460;2022-10-16T07:30:36;12.60;99.90
51589;DHT22;37671;53.258;6.460;2022-10-16T07:33:02;12.60;99.90
51589;DHT22;37671;53.258;6.460;2022-10-16T07:35:28;12.60;99.90
51589;DHT22;37671;53.258;6.460;2022-10-16T07:37:54;12.70;99.90
51589;DHT22;37671;53.258;6.460;2022-10-16T07:40:23;12.70;99.90
51589;DHT22;37671;53.258;6.460;2022-10-16T07:42:48;12.90;99.90
51589;DHT22;37671;53.258;6.460;2022-10-16T07:45:14;12.80;99.90
51589;DHT22;37671;53.258;6.460;2022-10-16T07:47:39;12.80;99.90
51589;DHT22;37671;53.258;6.460;2022-10-16T07:50:05;12.70;99.90
51589;DHT22;37671;53.258;6.460;2022-10-16T07:52:31;12.70;99.90
51589;DHT22;37671;53.258;6.460;2022-10-16T07:54:56;12.70;99.90
51589;DHT22;37671;53.258;6.460;2022-10-16T07:57:22;12.60;99.90
51589;DHT22;37671;53.258;6.460;2022-10-16T07:59:47;12.60;99.90
51589;DHT22;37671;53.258;6.460;2022-10-16T08:02:13;12.60;99.90
51589;DHT22;37671;53.258;6.460;2022-10-16T08:04:39;12.50;99.90
51589;DHT22;37671;53.258;6.460;2022-10-16T08:07:07;12.50;99.90
51589;DHT22;37671;53.258;6.460;2022-10-16T08:09:33;12.80;99.90
51589;DHT22;37671;53.258;6.460;2022-10-16T08:11:58;13.10;99.90
51589;DHT22;37671;53.258;6.460;2022-10-16T08:14:24;13.20;99.90
51589;DHT22;37671;53.258;6.460;2022-10-16T08:16:49;13.50;99.90
51589;DHT22;37671;53.258;6.460;2022-10-16T08:19:15;13.60;99.90
51589;DHT22;37671;53.258;6.460;2022-10-16T08:21:41;13.80;99.90
51589;DHT22;37671;53.258;6.460;2022-10-16T08:24:06;13.90;99.90
51589;DHT22;37671;53.258;6.460;2022-10-16T08:26:32;13.90;99.90
51589;DHT22;37671;53.258;6.460;2022-10-16T08:28:58;14.00;99.90
51589;DHT22;37671;53.258;6.460;2022-10-16T08:31:23;13.80;99.90
51589;DHT22;37671;53.258;6.460;2022-10-16T08:33:50;13.80;99.90
51589;DHT22;37671;53.258;6.460;2022-10-16T08:36:16;13.70;99.90
51589;DHT22;37671;53.258;6.460;2022-10-16T08:38:42;13.60;99.90
51589;DHT22;37671;53.258;6.460;2022-10-16T08:49:16;13.90;99.90
51589;DHT22;37671;53.258;6.460;2022-10-16T08:51:43;13.90;99.90
51589;DHT22;37671;53.258;6.460;2022-10-16T08:54:43;13.80;99.90
51589;DHT22;37671;53.258;6.460;2022-10-16T08:57:19;13.80;99.90
51589;DHT22;37671;53.258;6.460;2022-10-16T08:59:45;13.80;99.90
51589;DHT22;37671;53.258;6.460;2022-10-16T09:02:32;13.70;99.90
51589;DHT22;37671;53.258;6.460;2022-10-16T09:16:24;14.70;99.90
51589;DHT22;37671;53.258;6.460;2022-10-16T09:21:45;14.40;99.90
51589;DHT22;37671;53.258;6.460;2022-10-16T09:24:25;14.40;99.90
51589;DHT22;37671;53.258;6.460;2022-10-16T09:26:51;14.60;99.90
51589;DHT22;37671;53.258;6.460;2022-10-16T09:29:19;14.90;99.90
51589;DHT22;37671;53.258;6.460;2022-10-16T09:31:51;14.90;99.90
51589;DHT22;37671;53.258;6.460;2022-10-16T09:34:33;14.90;99.90
51589;DHT22;37671;53.258;6.460;2022-10-16T09:37:03;15.10;99.90
51589;DHT22;37671;53.258;6.460;2022-10-16T09:39:29;15.10;99.90
51589;DHT22;37671;53.258;6.460;2022-10-16T09:41:55;14.90;99.90
51589;DHT22;37671;53.258;6.460;2022-10-16T09:44:24;14.90;99.90
51589;DHT22;37671;53.258;6.460;2022-10-16T09:47:22;14.80;99.90
51589;DHT22;37671;53.258;6.460;2022-10-16T09:49:55;15.00;99.90
51589;DHT22;37671;53.258;6.460;2022-10-16T09:52:22;15.30;99.90
51589;DHT22;37671;53.258;6.460;2022-10-16T09:54:53;15.50;99.90
51589;DHT22;37671;53.258;6.460;2022-10-16T09:57:19;15.50;99.90
51589;DHT22;37671;53.258;6.460;2022-10-16T09:59:50;15.50;99.90
51589;DHT22;37671;53.258;6.460;2022-10-16T10:02:19;15.60;99.90
51589;DHT22;37671;53.258;6.460;2022-10-16T10:04:53;15.80;99.90
51589;DHT22;37671;53.258;6.460;2022-10-16T10:07:35;16.50;99.90
51589;DHT22;37671;53.258;6.460;2022-10-16T10:10:04;16.10;99.90
51589;DHT22;37671;53.258;6.460;2022-10-16T10:12:32;16.30;99.90
51589;DHT22;37671;53.258;6.460;2022-10-16T10:15:13;16.30;99.90
51589;DHT22;37671;53.258;6.460;2022-10-16T10:17:55;16.30;99.90
51589;DHT22;37671;53.258;6.460;2022-10-16T10:20:29;16.40;99.90
51589;DHT22;37671;53.258;6.460;2022-10-16T10:22:58;16.30;99.90
51589;DHT22;37671;53.258;6.460;2022-10-16T10:25:26;17.10;99.90
51589;DHT22;37671;53.258;6.460;2022-10-16T10:30:33;16.60;99.90
51589;DHT22;37671;53.258;6.460;2022-10-16T10:41:30;17.10;99.90
51589;DHT22;37671;53.258;6.460;2022-10-16T10:52:47;17.30;99.90
51589;DHT22;37671;53.258;6.460;2022-10-16T10:55:25;16.70;99.90
51589;DHT22;37671;53.258;6.460;2022-10-16T10:58:10;16.40;99.90
51589;DHT22;37671;53.258;6.460;2022-10-16T11:01:06;16.30;99.90
51589;DHT22;37671;53.258;6.460;2022-10-16T11:06:30;16.60;99.90
51589;DHT22;37671;53.258;6.460;2022-10-16T11:09:02;16.30;99.90
51589;DHT22;37671;53.258;6.460;2022-10-16T11:11:38;16.30;99.90
51589;DHT22;37671;53.258;6.460;2022-10-16T11:14:16;16.70;99.90
51589;DHT22;37671;53.258;6.460;2022-10-16T11:22:10;16.20;99.90
51589;DHT22;37671;53.258;6.460;2022-10-16T11:24:53;16.00;99.90
51589;DHT22;37671;53.258;6.460;2022-10-16T11:27:30;15.80;99.90
51589;DHT22;37671;53.258;6.460;2022-10-16T11:29:59;15.80;99.90
51589;DHT22;37671;53.258;6.460;2022-10-16T11:32:40;15.90;99.90
51589;DHT22;37671;53.258;6.460;2022-10-16T11:35:26;15.70;99.90
51589;DHT22;37671;53.258;6.460;2022-10-16T11:37:58;15.40;99.90
51589;DHT22;37671;53.258;6.460;2022-10-16T11:40:30;15.30;99.90
51589;DHT22;37671;53.258;6.460;2022-10-16T11:46:16;15.00;99.90
51589;DHT22;37671;53.258;6.460;2022-10-16T11:48:50;15.00;99.90
51589;DHT22;37671;53.258;6.460;2022-10-16T11:57:17;16.10;99.90
51589;DHT22;37671;53.258;6.460;2022-10-16T12:08:10;17.40;99.90
51589;DHT22;37671;53.258;6.460;2022-10-16T12:10:36;17.70;99.90
51589;DHT22;37671;53.258;6.460;2022-10-16T12:13:27;17.20;99.90
51589;DHT22;37671;53.258;6.460;2022-10-16T12:15:51;17.40;99.90
51589;DHT22;37671;53.258;6.460;2022-10-16T12:18:21;17.30;99.90
51589;DHT22;37671;53.258;6.460;2022-10-16T12:20:57;17.00;99.90
51589;DHT22;37671;53.258;6.460;2022-10-16T12:23:26;16.60;99.90
51589;DHT22;37671;53.258;6.460;2022-10-16T12:25:56;16.60;99.90
51589;DHT22;37671;53.258;6.460;2022-10-16T12:28:27;16.50;99.90
51589;DHT22;37671;53.258;6.460;2022-10-16T12:31:13;16.60;99.90
51589;DHT22;37671;53.258;6.460;2022-10-16T12:33:58;16.40;99.90
51589;DHT22;37671;53.258;6.460;2022-10-16T12:36:32;16.30;99.90
51589;DHT22;37671;53.258;6.460;2022-10-16T12:38:59;16.20;99.90
51589;DHT22;37671;53.258;6.460;2022-10-16T12:41:31;16.00;99.90
51589;DHT22;37671;53.258;6.460;2022-10-16T12:43:57;15.80;99.90
51589;DHT22;37671;53.258;6.460;2022-10-16T12:51:41;15.40;99.90
51589;DHT22;37671;53.258;6.460;2022-10-16T12:54:15;15.30;99.90
51589;DHT22;37671;53.258;6.460;2022-10-16T13:00:10;15.40;99.90
51589;DHT22;37671;53.258;6.460;2022-10-16T13:10:55;15.60;99.90
51589;DHT22;37671;53.258;6.460;2022-10-16T13:27:17;16.10;99.90
51589;DHT22;37671;53.258;6.460;2022-10-16T13:29:45;15.90;99.90
51589;DHT22;37671;53.258;6.460;2022-10-16T13:32:17;16.00;99.90
51589;DHT22;37671;53.258;6.460;2022-10-16T13:34:47;16.30;99.90
51589;DHT22;37671;53.258;6.460;2022-10-16T13:37:25;15.90;99.90
51589;DHT22;37671;53.258;6.460;2022-10-16T13:39:50;15.90;99.90
51589;DHT22;37671;53.258;6.460;2022-10-16T13:42:27;15.90;99.90
51589;DHT22;37671;53.258;6.460;2022-10-16T13:44:55;16.00;99.90
51589;DHT22;37671;53.258;6.460;2022-10-16T13:47:26;16.20;99.90
51589;DHT22;37671;53.258;6.460;2022-10-16T13:50:00;16.10;99.90
51589;DHT22;37671;53.258;6.460;2022-10-16T13:52:27;16.20;99.90
51589;DHT22;37671;53.258;6.460;2022-10-16T13:54:53;16.40;99.90
51589;DHT22;37671;53.258;6.460;2022-10-16T13:57:22;16.20;99.90
51589;DHT22;37671;53.258;6.460;2022-10-16T13:59:48;16.30;99.90
51589;DHT22;37671;53.258;6.460;2022-10-16T14:02:31;16.30;99.90
51589;DHT22;37671;53.258;6.460;2022-10-16T14:05:01;16.30;99.90
51589;DHT22;37671;53.258;6.460;2022-10-16T14:07:29;16.30;99.90
51589;DHT22;37671;53.258;6.460;2022-10-16T14:10:04;16.70;99.90
51589;DHT22;37671;53.258;6.460;2022-10-16T14:12:30;16.30;99.90
51589;DHT22;37671;53.258;6.460;2022-10-16T14:14:57;16.20;99.90
51589;DHT22;37671;53.258;6.460;2022-10-16T14:17:29;16.30;99.90
51589;DHT22;37671;53.258;6.460;2022-10-16T14:19:58;16.20;99.90
51589;DHT22;37671;53.258;6.460;2022-10-16T14:22:28;16.10;99.90
51589;DHT22;37671;53.258;6.460;2022-10-16T14:24:55;16.20;99.90
51589;DHT22;37671;53.258;6.460;2022-10-16T14:27:35;16.10;99.90
51589;DHT22;37671;53.258;6.460;2022-10-16T14:30:19;16.10;99.90
51589;DHT22;37671;53.258;6.460;2022-10-16T14:32:58;16.50;99.90
51589;DHT22;37671;53.258;6.460;2022-10-16T14:35:36;15.90;99.90
51589;DHT22;37671;53.258;6.460;2022-10-16T14:38:05;15.80;99.90
51589;DHT22;37671;53.258;6.460;2022-10-16T14:40:36;15.70;99.90
51589;DHT22;37671;53.258;6.460;2022-10-16T14:43:03;16.10;99.90
51589;DHT22;37671;53.258;6.460;2022-10-16T14:45:31;15.70;99.90
51589;DHT22;37671;53.258;6.460;2022-10-16T14:48:05;15.70;99.90
51589;DHT22;37671;53.258;6.460;2022-10-16T14:50:31;15.60;99.90
51589;DHT22;37671;53.258;6.460;2022-10-16T14:52:58;15.40;99.90
51589;DHT22;37671;53.258;6.460;2022-10-16T14:55:24;15.20;99.90
51589;DHT22;37671;53.258;6.460;2022-10-16T14:57:50;15.20;99.90
51589;DHT22;37671;53.258;6.460;2022-10-16T15:00:22;15.00;99.90
51589;DHT22;37671;53.258;6.460;2022-10-16T15:02:48;15.00;99.90
51589;DHT22;37671;53.258;6.460;2022-10-16T15:05:20;15.00;99.90
51589;DHT22;37671;53.258;6.460;2022-10-16T15:07:47;14.90;99.90
51589;DHT22;37671;53.258;6.460;2022-10-16T15:10:15;14.90;99.90
51589;DHT22;37671;53.258;6.460;2022-10-16T15:12:41;15.30;99.90
51589;DHT22;37671;53.258;6.460;2022-10-16T15:15:31;14.80;99.90
51589;DHT22;37671;53.258;6.460;2022-10-16T15:17:57;14.80;99.90
51589;DHT22;37671;53.258;6.460;2022-10-16T15:20:44;14.70;99.90
51589;DHT22;37671;53.258;6.460;2022-10-16T15:23:18;14.70;99.90
51589;DHT22;37671;53.258;6.460;2022-10-16T15:25:46;14.60;99.90
51589;DHT22;37671;53.258;6.460;2022-10-16T15:28:14;14.80;99.90
51589;DHT22;37671;53.258;6.460;2022-10-16T15:30:40;14.60;99.90
51589;DHT22;37671;53.258;6.460;2022-10-16T15:33:12;14.50;99.90
51589;DHT22;37671;53.258;6.460;2022-10-16T15:35:39;14.40;99.90
51589;DHT22;37671;53.258;6.460;2022-10-16T15:38:04;14.30;99.90
51589;DHT22;37671;53.258;6.460;2022-10-16T15:40:30;14.20;99.90
51589;DHT22;37671;53.258;6.460;2022-10-16T15:42:56;14.20;99.90
51589;DHT22;37671;53.258;6.460;2022-10-16T15:45:21;14.10;99.90
51589;DHT22;37671;53.258;6.460;2022-10-16T15:47:47;14.10;99.90
51589;DHT22;37671;53.258;6.460;2022-10-16T15:50:15;14.00;99.90
51589;DHT22;37671;53.258;6.460;2022-10-16T15:52:41;14.00;99.90
51589;DHT22;37671;53.258;6.460;2022-10-16T15:55:08;13.90;99.90
51589;DHT22;37671;53.258;6.460;2022-10-16T15:57:35;13.90;99.90
51589;DHT22;37671;53.258;6.460;2022-10-16T16:00:07;13.90;99.90
51589;DHT22;37671;53.258;6.460;2022-10-16T16:02:33;13.70;99.90
51589;DHT22;37671;53.258;6.460;2022-10-16T16:04:59;13.60;99.90
51589;DHT22;37671;53.258;6.460;2022-10-16T16:07:25;13.60;99.90
51589;DHT22;37671;53.258;6.460;2022-10-16T16:09:52;13.60;99.90
51589;DHT22;37671;53.258;6.460;2022-10-16T16:12:19;13.70;99.90
51589;DHT22;37671;53.258;6.460;2022-10-16T16:14:44;13.50;99.90
51589;DHT22;37671;53.258;6.460;2022-10-16T16:17:11;13.40;99.90
51589;DHT22;37671;53.258;6.460;2022-10-16T16:19:37;13.50;99.90
51589;DHT22;37671;53.258;6.460;2022-10-16T16:22:03;13.30;99.90
51589;DHT22;37671;53.258;6.460;2022-10-16T16:24:28;13.20;99.90
51589;DHT22;37671;53.258;6.460;2022-10-16T16:26:54;13.10;99.90
51589;DHT22;37671;53.258;6.460;2022-10-16T16:29:20;13.30;99.90
51589;DHT22;37671;53.258;6.460;2022-10-16T16:31:45;13.00;99.90
51589;DHT22;37671;53.258;6.460;2022-10-16T16:34:12;13.00;99.90
51589;DHT22;37671;53.258;6.460;2022-10-16T16:36:38;12.90;99.90
51589;DHT22;37671;53.258;6.460;2022-10-16T16:39:06;12.80;99.90
51589;DHT22;37671;53.258;6.460;2022-10-16T16:41:33;12.80;99.90
51589;DHT22;37671;53.258;6.460;2022-10-16T16:44:04;12.70;99.90
51589;DHT22;37671;53.258;6.460;2022-10-16T16:46:31;12.70;99.90
51589;DHT22;37671;53.258;6.460;2022-10-16T16:48:58;12.70;99.90
51589;DHT22;37671;53.258;6.460;2022-10-16T16:51:24;12.60;99.90
51589;DHT22;37671;53.258;6.460;2022-10-16T16:53:51;13.10;99.90
51589;DHT22;37671;53.258;6.460;2022-10-16T16:56:18;12.50;99.90
51589;DHT22;37671;53.258;6.460;2022-10-16T16:58:52;12.80;99.90
51589;DHT22;37671;53.258;6.460;2022-10-16T17:01:18;12.40;99.90
51589;DHT22;37671;53.258;6.460;2022-10-16T17:03:45;12.40;99.90
51589;DHT22;37671;53.258;6.460;2022-10-16T17:06:12;12.30;99.90
51589;DHT22;37671;53.258;6.460;2022-10-16T17:08:39;12.70;99.90
51589;DHT22;37671;53.258;6.460;2022-10-16T17:11:05;12.20;99.90
51589;DHT22;37671;53.258;6.460;2022-10-16T17:13:34;12.10;99.90
51589;DHT22;37671;53.258;6.460;2022-10-16T17:16:05;12.10;99.90
51589;DHT22;37671;53.258;6.460;2022-10-16T17:18:32;12.10;99.90
51589;DHT22;37671;53.258;6.460;2022-10-16T17:21:00;12.10;99.90
51589;DHT22;37671;53.258;6.460;2022-10-16T17:23:25;12.00;99.90
51589;DHT22;37671;53.258;6.460;2022-10-16T17:25:51;12.00;99.90
51589;DHT22;37671;53.258;6.460;2022-10-16T17:28:17;12.00;99.90
51589;DHT22;37671;53.258;6.460;2022-10-16T17:30:43;12.00;99.90
51589;DHT22;37671;53.258;6.460;2022-10-16T17:33:10;12.00;99.90
51589;DHT22;37671;53.258;6.460;2022-10-16T17:35:46;12.00;99.90
51589;DHT22;37671;53.258;6.460;2022-10-16T17:38:13;11.90;99.90
51589;DHT22;37671;53.258;6.460;2022-10-16T17:40:39;11.80;99.90
51589;DHT22;37671;53.258;6.460;2022-10-16T17:43:06;12.20;99.90
51589;DHT22;37671;53.258;6.460;2022-10-16T17:45:36;11.80;99.90
51589;DHT22;37671;53.258;6.460;2022-10-16T17:48:02;12.80;99.90
51589;DHT22;37671;53.258;6.460;2022-10-16T17:50:27;11.80;99.90
51589;DHT22;37671;53.258;6.460;2022-10-16T17:52:53;11.80;99.90
51589;DHT22;37671;53.258;6.460;2022-10-16T17:55:19;11.70;99.90
51589;DHT22;37671;53.258;6.460;2022-10-16T17:57:44;11.60;99.90
51589;DHT22;37671;53.258;6.460;2022-10-16T18:00:12;11.60;99.90
51589;DHT22;37671;53.258;6.460;2022-10-16T18:02:38;11.60;99.90
51589;DHT22;37671;53.258;6.460;2022-10-16T18:05:08;11.50;99.90
51589;DHT22;37671;53.258;6.460;2022-10-16T18:07:34;11.50;99.90
51589;DHT22;37671;53.258;6.460;2022-10-16T18:09:59;11.50;99.90
51589;DHT22;37671;53.258;6.460;2022-10-16T18:12:28;11.50;99.90
51589;DHT22;37671;53.258;6.460;2022-10-16T18:14:54;11.40;99.90
51589;DHT22;37671;53.258;6.460;2022-10-16T18:17:23;11.40;99.90
51589;DHT22;37671;53.258;6.460;2022-10-16T18:19:49;11.40;99.90
51589;DHT22;37671;53.258;6.460;2022-10-16T18:22:14;11.40;99.90
51589;DHT22;37671;53.258;6.460;2022-10-16T18:24:40;11.60;99.90
51589;DHT22;37671;53.258;6.460;2022-10-16T18:27:05;11.40;99.90
51589;DHT22;37671;53.258;6.460;2022-10-16T18:29:31;11.30;99.90
51589;DHT22;37671;53.258;6.460;2022-10-16T18:31:57;11.40;99.90
51589;DHT22;37671;53.258;6.460;2022-10-16T18:34:23;11.30;99.90
51589;DHT22;37671;53.258;6.460;2022-10-16T18:36:51;11.30;99.90
51589;DHT22;37671;53.258;6.460;2022-10-16T18:39:17;11.20;99.90
51589;DHT22;37671;53.258;6.460;2022-10-16T18:41:43;11.30;99.90
51589;DHT22;37671;53.258;6.460;2022-10-16T18:44:12;11.30;99.90
51589;DHT22;37671;53.258;6.460;2022-10-16T18:46:38;11.30;99.90
51589;DHT22;37671;53.258;6.460;2022-10-16T18:49:04;11.30;99.90
51589;DHT22;37671;53.258;6.460;2022-10-16T18:51:36;11.30;99.90
51589;DHT22;37671;53.258;6.460;2022-10-16T18:54:07;11.40;99.90
51589;DHT22;37671;53.258;6.460;2022-10-16T18:56:33;11.30;99.90
51589;DHT22;37671;53.258;6.460;2022-10-16T18:59:01;11.20;99.90
51589;DHT22;37671;53.258;6.460;2022-10-16T19:01:28;11.30;99.90
51589;DHT22;37671;53.258;6.460;2022-10-16T19:04:02;11.30;99.90
51589;DHT22;37671;53.258;6.460;2022-10-16T19:06:29;11.20;99.90
51589;DHT22;37671;53.258;6.460;2022-10-16T19:08:56;11.20;99.90
51589;DHT22;37671;53.258;6.460;2022-10-16T19:11:23;11.20;99.90
51589;DHT22;37671;53.258;6.460;2022-10-16T19:13:51;11.20;99.90
51589;DHT22;37671;53.258;6.460;2022-10-16T19:16:24;11.30;99.90
51589;DHT22;37671;53.258;6.460;2022-10-16T19:18:55;11.90;99.90
51589;DHT22;37671;53.258;6.460;2022-10-16T19:21:21;11.30;99.90
51589;DHT22;37671;53.258;6.460;2022-10-16T19:24:01;11.40;99.90
51589;DHT22;37671;53.258;6.460;2022-10-16T19:26:29;11.30;99.90
51589;DHT22;37671;53.258;6.460;2022-10-16T19:28:56;11.30;99.90
51589;DHT22;37671;53.258;6.460;2022-10-16T19:31:23;11.30;99.90
51589;DHT22;37671;53.258;6.460;2022-10-16T19:33:58;11.30;99.90
51589;DHT22;37671;53.258;6.460;2022-10-16T19:36:32;11.60;99.90
51589;DHT22;37671;53.258;6.460;2022-10-16T19:39:11;11.30;99.90
51589;DHT22;37671;53.258;6.460;2022-10-16T19:41:37;11.30;99.90
51589;DHT22;37671;53.258;6.460;2022-10-16T19:44:05;11.30;99.90
51589;DHT22;37671;53.258;6.460;2022-10-16T19:46:31;11.30;99.90
51589;DHT22;37671;53.258;6.460;2022-10-16T19:49:00;11.30;99.90
51589;DHT22;37671;53.258;6.460;2022-10-16T19:51:26;11.30;99.90
51589;DHT22;37671;53.258;6.460;2022-10-16T19:54:05;11.30;99.90
51589;DHT22;37671;53.258;6.460;2022-10-16T19:56:32;11.50;99.90
51589;DHT22;37671;53.258;6.460;2022-10-16T19:58:59;11.30;99.90
51589;DHT22;37671;53.258;6.460;2022-10-16T20:01:27;11.80;99.90
51589;DHT22;37671;53.258;6.460;2022-10-16T20:03:53;11.30;99.90
51589;DHT22;37671;53.258;6.460;2022-10-16T20:06:19;11.30;99.90
51589;DHT22;37671;53.258;6.460;2022-10-16T20:08:46;11.20;99.90
51589;DHT22;37671;53.258;6.460;2022-10-16T20:11:15;11.20;99.90
51589;DHT22;37671;53.258;6.460;2022-10-16T20:13:43;11.20;99.90
51589;DHT22;37671;53.258;6.460;2022-10-16T20:16:10;11.20;99.90
51589;DHT22;37671;53.258;6.460;2022-10-16T20:18:37;11.20;99.90
51589;DHT22;37671;53.258;6.460;2022-10-16T20:21:08;11.30;99.90
51589;DHT22;37671;53.258;6.460;2022-10-16T20:23:34;11.10;99.90
51589;DHT22;37671;53.258;6.460;2022-10-16T20:26:00;11.10;99.90
51589;DHT22;37671;53.258;6.460;2022-10-16T20:28:25;11.10;99.90
51589;DHT22;37671;53.258;6.460;2022-10-16T20:30:51;11.10;99.90
51589;DHT22;37671;53.258;6.460;2022-10-16T20:33:17;11.20;99.90
51589;DHT22;37671;53.258;6.460;2022-10-16T20:35:45;11.60;99.90
51589;DHT22;37671;53.258;6.460;2022-10-16T20:38:12;12.00;99.90
51589;DHT22;37671;53.258;6.460;2022-10-16T20:40:40;11.20;99.90
51589;DHT22;37671;53.258;6.460;2022-10-16T20:43:09;11.20;99.90
51589;DHT22;37671;53.258;6.460;2022-10-16T20:45:35;11.20;99.90
51589;DHT22;37671;53.258;6.460;2022-10-16T20:48:01;11.10;99.90
51589;DHT22;37671;53.258;6.460;2022-10-16T20:50:30;11.20;99.90
51589;DHT22;37671;53.258;6.460;2022-10-16T20:52:56;11.20;99.90
51589;DHT22;37671;53.258;6.460;2022-10-16T20:55:22;11.20;99.90
51589;DHT22;37671;53.258;6.460;2022-10-16T20:57:48;11.20;99.90
51589;DHT22;37671;53.258;6.460;2022-10-16T21:00:14;11.80;99.90
51589;DHT22;37671;53.258;6.460;2022-10-16T21:02:39;11.20;99.90
51589;DHT22;37671;53.258;6.460;2022-10-16T21:05:06;12.30;99.90
51589;DHT22;37671;53.258;6.460;2022-10-16T21:07:31;11.20;99.90
51589;DHT22;37671;53.258;6.460;2022-10-16T21:09:57;11.30;99.90
51589;DHT22;37671;53.258;6.460;2022-10-16T21:12:24;11.20;99.90
51589;DHT22;37671;53.258;6.460;2022-10-16T21:14:50;11.40;99.90
51589;DHT22;37671;53.258;6.460;2022-10-16T21:17:16;11.30;99.90
51589;DHT22;37671;53.258;6.460;2022-10-16T21:19:42;11.50;99.90
51589;DHT22;37671;53.258;6.460;2022-10-16T21:22:07;11.20;99.90
51589;DHT22;37671;53.258;6.460;2022-10-16T21:24:34;11.20;99.90
51589;DHT22;37671;53.258;6.460;2022-10-16T21:27:00;11.30;99.90
51589;DHT22;37671;53.258;6.460;2022-10-16T21:29:26;11.30;99.90
51589;DHT22;37671;53.258;6.460;2022-10-16T21:31:52;11.30;99.90
51589;DHT22;37671;53.258;6.460;2022-10-16T21:34:18;11.30;99.90
51589;DHT22;37671;53.258;6.460;2022-10-16T21:36:43;11.40;99.90
51589;DHT22;37671;53.258;6.460;2022-10-16T21:39:13;11.30;99.90
51589;DHT22;37671;53.258;6.460;2022-10-16T21:41:40;11.50;99.90
51589;DHT22;37671;53.258;6.460;2022-10-16T21:44:07;11.30;99.90
51589;DHT22;37671;53.258;6.460;2022-10-16T21:46:34;11.30;99.90
51589;DHT22;37671;53.258;6.460;2022-10-16T21:49:03;11.40;99.90
51589;DHT22;37671;53.258;6.460;2022-10-16T21:51:32;11.30;99.90
51589;DHT22;37671;53.258;6.460;2022-10-16T21:53:59;11.90;99.90
51589;DHT22;37671;53.258;6.460;2022-10-16T21:56:25;11.30;99.90
51589;DHT22;37671;53.258;6.460;2022-10-16T21:58:51;11.40;99.90